createdAt,value
2022-12-07T00:01:40.654Z,1.50
2022-12-07T00:04:12.253Z,1.63
2022-12-07T00:06:42.111Z,1.75
2022-12-07T00:09:14.202Z,1.63
2022-12-07T00:11:42.684Z,1.50
2022-12-07T00:14:14.969Z,1.80
2022-12-07T00:16:45.968Z,1.60
2022-12-07T00:19:16.232Z,1.60
2022-12-07T00:21:44.849Z,1.88
2022-12-07T00:24:13.994Z,1.80
2022-12-07T00:26:45.062Z,1.92
2022-12-07T00:29:17.787Z,1.27
2022-12-07T00:31:48.694Z,1.83
2022-12-07T00:34:20.684Z,2.00
2022-12-07T00:36:49.151Z,1.70
2022-12-07T00:39:17.507Z,1.83
2022-12-07T00:41:45.952Z,1.73
2022-12-07T00:44:14.602Z,2.00
2022-12-07T00:46:43.585Z,1.63
2022-12-07T00:49:13.454Z,2.00
2022-12-07T00:51:41.720Z,1.85
2022-12-07T00:54:10.327Z,2.10
2022-12-07T00:56:38.661Z,2.38
2022-12-07T00:59:07.122Z,2.20
2022-12-07T01:01:39.318Z,1.85
2022-12-07T01:04:08.595Z,2.20
2022-12-07T01:06:38.397Z,2.35
2022-12-07T01:09:07.426Z,2.30
2022-12-07T01:11:36.225Z,2.15
2022-12-07T01:14:04.950Z,2.10
2022-12-07T01:16:34.608Z,2.50
2022-12-07T01:19:05.843Z,2.38
2022-12-07T01:21:38.932Z,2.33
2022-12-07T01:24:09.597Z,2.42
2022-12-07T01:26:38.503Z,2.40
2022-12-07T01:29:07.454Z,2.53
2022-12-07T01:31:36.065Z,2.90
2022-12-07T01:34:04.652Z,3.00
2022-12-07T01:36:34.555Z,3.10
2022-12-07T01:39:07.268Z,3.17
2022-12-07T01:41:38.292Z,3.10
2022-12-07T01:44:19.743Z,3.22
2022-12-07T01:46:49.404Z,3.10
2022-12-07T01:49:23.833Z,3.20
2022-12-07T01:51:54.813Z,2.97
2022-12-07T01:54:25.048Z,3.22
2022-12-07T01:56:56.029Z,2.67
2022-12-07T01:59:27.788Z,2.38
2022-12-07T02:01:57.442Z,2.40
2022-12-07T02:04:26.404Z,2.60
2022-12-07T02:06:56.254Z,2.42
2022-12-07T02:09:25.987Z,2.25
2022-12-07T02:11:56.513Z,2.45
2022-12-07T02:14:24.803Z,2.40
2022-12-07T02:17:07.918Z,2.28
2022-12-07T02:20:01.971Z,2.13
2022-12-07T02:22:58.161Z,2.45
2022-12-07T02:25:43.510Z,2.13
2022-12-07T02:28:21.497Z,2.05
2022-12-07T02:30:54.610Z,2.55
2022-12-07T02:33:29.008Z,2.42
2022-12-07T02:36:04.673Z,2.70
2022-12-07T02:38:40.900Z,2.85
2022-12-07T02:41:14.836Z,2.67
2022-12-07T02:43:45.786Z,2.72
2022-12-07T02:46:19.396Z,2.50
2022-12-07T02:51:16.162Z,2.50
2022-12-07T02:53:46.322Z,2.63
2022-12-07T02:56:24.667Z,2.80
2022-12-07T02:59:01.718Z,2.42
2022-12-07T03:01:40.537Z,2.40
2022-12-07T03:04:22.109Z,2.60
2022-12-07T03:06:56.428Z,2.60
2022-12-07T03:09:35.201Z,2.00
2022-12-07T03:12:13.824Z,2.20
2022-12-07T03:14:49.880Z,2.15
2022-12-07T03:17:23.054Z,2.00
2022-12-07T03:19:54.175Z,1.98
2022-12-07T03:22:24.558Z,2.17
2022-12-07T03:24:56.354Z,1.90
2022-12-07T03:27:28.118Z,1.58
2022-12-07T03:30:02.064Z,1.42
2022-12-07T03:32:38.692Z,1.60
2022-12-07T03:35:17.118Z,1.80
2022-12-07T03:37:49.428Z,1.60
2022-12-07T03:40:23.849Z,1.40
2022-12-07T03:42:53.486Z,1.30
2022-12-07T03:45:27.068Z,1.15
2022-12-07T03:48:06.456Z,1.00
2022-12-07T03:50:44.028Z,0.82
2022-12-07T03:53:18.288Z,0.80
2022-12-07T03:55:51.004Z,0.60
2022-12-07T03:58:22.929Z,0.90
2022-12-07T04:00:52.030Z,0.90
2022-12-07T04:03:21.942Z,0.65
2022-12-07T04:05:50.911Z,0.70
2022-12-07T04:08:19.285Z,0.88
2022-12-07T04:10:47.992Z,0.70
2022-12-07T04:13:16.336Z,0.80
2022-12-07T04:15:45.378Z,0.50
2022-12-07T04:18:13.786Z,0.90
2022-12-07T04:20:43.931Z,0.60
2022-12-07T04:23:12.507Z,0.60
2022-12-07T04:25:41.617Z,0.75
2022-12-07T04:28:10.094Z,0.80
2022-12-07T04:30:38.403Z,0.80
2022-12-07T04:33:06.732Z,1.27
2022-12-07T04:35:35.367Z,1.15
2022-12-07T04:38:05.507Z,1.10
2022-12-07T04:40:33.920Z,0.90
2022-12-07T04:43:02.291Z,1.25
2022-12-07T04:45:30.662Z,1.25
2022-12-07T04:47:59.037Z,1.00
2022-12-07T04:50:27.527Z,1.15
2022-12-07T04:52:55.853Z,0.80
2022-12-07T04:55:25.547Z,1.20
2022-12-07T04:57:53.904Z,0.88
2022-12-07T05:00:22.504Z,0.63
2022-12-07T05:02:50.824Z,0.90
2022-12-07T05:05:19.261Z,0.80
2022-12-07T05:07:47.925Z,0.80
2022-12-07T05:10:16.413Z,1.00
2022-12-07T05:12:46.599Z,0.70
2022-12-07T05:15:15.355Z,0.70
2022-12-07T05:17:43.959Z,0.65
2022-12-07T05:20:13.222Z,0.70
2022-12-07T05:22:41.584Z,0.60
2022-12-07T05:25:10.919Z,0.73
2022-12-07T05:27:39.795Z,0.50
2022-12-07T05:30:10.876Z,0.30
2022-12-07T05:32:39.215Z,0.50
2022-12-07T05:35:08.387Z,0.60
2022-12-07T05:37:36.786Z,0.55
2022-12-07T05:40:06.472Z,0.60
2022-12-07T05:42:34.866Z,0.60
2022-12-07T05:45:03.521Z,0.60
2022-12-07T05:47:33.470Z,0.80
2022-12-07T05:50:02.086Z,1.20
2022-12-07T05:52:30.782Z,1.00
2022-12-07T05:54:59.227Z,1.08
2022-12-07T05:57:28.301Z,1.08
2022-12-07T05:59:55.582Z,1.20
2022-12-07T06:02:24.035Z,1.95
2022-12-07T06:04:53.904Z,1.73
2022-12-07T06:07:22.269Z,1.88
2022-12-07T06:09:51.031Z,2.38
2022-12-07T06:12:36.474Z,1.70
2022-12-07T06:15:05.355Z,2.17
2022-12-07T06:17:33.831Z,1.50
2022-12-07T06:20:04.538Z,1.70
2022-12-07T06:22:33.096Z,1.60
2022-12-07T06:25:08.093Z,1.25
2022-12-07T06:27:37.119Z,1.50
2022-12-07T06:30:07.825Z,1.40
2022-12-07T06:32:36.866Z,1.23
2022-12-07T06:35:08.002Z,0.95
2022-12-07T06:37:36.869Z,1.10
2022-12-07T06:40:06.009Z,1.48
2022-12-07T06:42:34.374Z,1.80
2022-12-07T06:45:02.682Z,1.90
2022-12-07T06:47:40.541Z,2.15
2022-12-07T06:50:12.608Z,2.17
2022-12-07T06:52:41.051Z,2.55
2022-12-07T06:55:09.816Z,2.90
2022-12-07T06:57:38.181Z,3.10
2022-12-07T07:00:08.147Z,2.35
2022-12-07T07:02:36.471Z,2.50
2022-12-07T07:05:05.082Z,2.25
2022-12-07T07:07:51.887Z,2.63
2022-12-07T07:10:23.244Z,2.40
2022-12-07T07:12:55.796Z,2.40
2022-12-07T07:15:25.855Z,2.38
2022-12-07T07:17:54.113Z,1.88
2022-12-07T07:20:22.662Z,2.00
2022-12-07T07:22:52.423Z,2.10
2022-12-07T07:25:20.753Z,1.70
2022-12-07T07:27:49.271Z,2.20
2022-12-07T07:30:17.957Z,1.70
2022-12-07T07:32:47.428Z,1.63
2022-12-07T07:35:15.848Z,1.73
2022-12-07T07:37:44.310Z,2.53
2022-12-07T07:40:14.602Z,3.50
2022-12-07T07:42:42.997Z,7.13
2022-12-07T07:45:12.260Z,1.95
2022-12-07T07:47:40.595Z,2.13
2022-12-07T07:50:09.851Z,2.67
2022-12-07T07:52:38.300Z,2.90
2022-12-07T07:55:09.647Z,2.47
2022-12-07T07:57:40.849Z,1.85
2022-12-07T08:00:11.270Z,2.40
2022-12-07T08:02:39.577Z,1.88
2022-12-07T08:05:09.548Z,1.80
2022-12-07T08:07:37.996Z,2.63
2022-12-07T08:10:07.614Z,2.10
2022-12-07T08:13:00.776Z,2.45
2022-12-07T08:15:31.138Z,2.15
2022-12-07T08:17:59.638Z,3.05
2022-12-07T08:20:28.517Z,2.58
2022-12-07T08:22:56.931Z,2.40
2022-12-07T08:25:25.400Z,3.63
2022-12-07T08:27:57.080Z,4.28
2022-12-07T08:30:26.089Z,4.20
2022-12-07T08:32:54.456Z,9.52
2022-12-07T08:35:22.813Z,5.90
2022-12-07T08:37:51.181Z,8.80
2022-12-07T08:40:20.146Z,2.25
2022-12-07T08:42:51.596Z,3.15
2022-12-07T08:45:27.108Z,3.22
2022-12-07T08:47:59.867Z,2.60
2022-12-07T08:50:28.802Z,2.80
2022-12-07T08:52:59.666Z,2.70
2022-12-07T08:55:29.544Z,1.85
2022-12-07T08:58:00.110Z,1.90
2022-12-07T09:00:29.984Z,1.95
2022-12-07T09:02:58.445Z,2.08
2022-12-07T09:05:27.002Z,2.10
2022-12-07T09:08:00.302Z,2.10
2022-12-07T09:10:28.940Z,2.50
2022-12-07T09:12:57.304Z,2.40
2022-12-07T09:15:25.723Z,1.92
2022-12-07T09:17:56.035Z,2.47
2022-12-07T09:20:27.999Z,2.13
2022-12-07T09:22:56.927Z,3.55
2022-12-07T09:25:25.396Z,2.30
2022-12-07T09:27:59.203Z,2.45
2022-12-07T09:30:28.001Z,2.50
2022-12-07T09:32:58.361Z,2.05
2022-12-07T09:35:27.278Z,2.58
2022-12-07T09:37:55.906Z,1.85
2022-12-07T09:40:26.572Z,2.00
2022-12-07T09:42:57.605Z,1.88
2022-12-07T09:45:36.432Z,1.85
2022-12-07T09:48:07.591Z,1.95
2022-12-07T09:50:35.924Z,1.48
2022-12-07T09:53:10.736Z,1.83
2022-12-07T09:55:41.370Z,1.60
2022-12-07T09:58:17.140Z,1.85
2022-12-07T10:00:46.285Z,1.60
2022-12-07T10:03:16.086Z,1.65
2022-12-07T10:05:47.840Z,2.00
2022-12-07T10:08:18.479Z,2.50
2022-12-07T10:10:48.155Z,1.60
2022-12-07T10:13:21.000Z,1.83
2022-12-07T10:15:53.498Z,1.98
2022-12-07T10:18:29.494Z,4.30
2022-12-07T10:21:12.561Z,1.75
2022-12-07T10:23:42.900Z,1.60
2022-12-07T10:26:31.025Z,1.58
2022-12-07T10:29:02.010Z,1.25
2022-12-07T10:31:31.343Z,1.20
2022-12-07T10:34:03.207Z,1.63
2022-12-07T10:36:37.932Z,1.30
2022-12-07T10:39:14.907Z,1.80
2022-12-07T10:41:57.363Z,1.42
2022-12-07T10:44:27.963Z,2.20
2022-12-07T10:47:27.127Z,1.70
2022-12-07T10:50:41.451Z,1.40
2022-12-07T10:53:40.823Z,1.25
2022-12-07T10:56:31.744Z,2.95
2022-12-07T10:59:14.145Z,1.38
2022-12-07T11:01:52.560Z,1.35
2022-12-07T11:04:34.138Z,1.40
2022-12-07T11:07:13.538Z,1.30
2022-12-07T11:10:08.353Z,1.20
2022-12-07T11:12:53.446Z,1.58
2022-12-07T11:15:28.524Z,1.38
2022-12-07T11:18:06.280Z,1.60
2022-12-07T11:20:46.069Z,1.10
2022-12-07T11:23:24.346Z,0.98
2022-12-07T11:26:02.332Z,1.38
2022-12-07T11:28:52.197Z,1.30
2022-12-07T11:31:29.583Z,1.42
2022-12-07T11:34:09.639Z,1.13
2022-12-07T11:36:41.859Z,1.33
2022-12-07T11:39:25.570Z,1.10
2022-12-07T11:42:00.510Z,1.00
2022-12-07T11:44:35.653Z,0.95
2022-12-07T11:47:11.053Z,1.08
2022-12-07T11:49:46.446Z,1.30
2022-12-07T11:52:24.305Z,1.10
2022-12-07T11:54:56.094Z,1.50
2022-12-07T11:57:34.478Z,1.00
2022-12-07T12:00:08.266Z,1.20
2022-12-07T12:02:44.021Z,2.42
2022-12-07T12:05:18.694Z,1.55
2022-12-07T12:10:56.974Z,0.73
2022-12-07T12:17:12.372Z,1.15
2022-12-07T12:19:45.155Z,1.58
2022-12-07T12:22:20.069Z,1.10
2022-12-07T12:24:53.897Z,0.93
2022-12-07T12:27:27.608Z,1.10
2022-12-07T12:32:40.335Z,1.75
2022-12-07T12:35:32.336Z,1.63
2022-12-07T12:38:29.744Z,1.10
2022-12-07T12:40:59.083Z,1.10
2022-12-07T12:43:59.161Z,1.10
2022-12-07T12:46:52.946Z,0.98
2022-12-07T12:49:45.699Z,1.10
2022-12-07T12:52:51.570Z,1.02
2022-12-07T12:55:24.864Z,1.20
2022-12-07T12:58:30.486Z,1.58
2022-12-07T13:01:42.181Z,1.05
2022-12-07T13:04:41.174Z,1.20
2022-12-07T13:07:15.965Z,1.20
2022-12-07T13:09:47.447Z,0.93
2022-12-07T13:12:18.555Z,1.25
2022-12-07T13:15:30.491Z,0.90
2022-12-07T13:18:07.125Z,1.40
2022-12-07T13:20:50.735Z,0.80
2022-12-07T13:23:28.338Z,0.82
2022-12-07T13:26:17.053Z,0.90
2022-12-07T13:28:48.040Z,2.45
2022-12-07T13:31:23.446Z,1.05
2022-12-07T13:33:53.288Z,0.80
2022-12-07T13:36:25.857Z,0.70
2022-12-07T13:38:57.348Z,1.10
2022-12-07T13:41:26.995Z,0.80
2022-12-07T13:44:03.899Z,1.02
2022-12-07T13:46:52.775Z,1.15
2022-12-07T13:49:25.172Z,0.80
2022-12-07T13:51:54.305Z,1.08
2022-12-07T13:54:23.643Z,1.23
2022-12-07T13:56:54.539Z,3.40
2022-12-07T13:59:25.504Z,8.35
2022-12-07T14:01:55.196Z,1.90
2022-12-07T14:04:42.639Z,1.10
2022-12-07T14:07:26.176Z,1.55
2022-12-07T14:09:59.944Z,1.00
2022-12-07T14:15:00.038Z,1.20
2022-12-07T14:17:29.786Z,3.13
2022-12-07T14:20:01.226Z,4.22
2022-12-07T14:22:36.155Z,1.20
2022-12-07T14:25:20.015Z,1.00
2022-12-07T14:28:00.104Z,0.90
2022-12-07T14:30:30.811Z,1.65
2022-12-07T14:33:01.888Z,1.90
2022-12-07T14:35:33.643Z,1.10
2022-12-07T14:38:02.121Z,4.28
2022-12-07T14:40:32.587Z,6.32
2022-12-07T14:43:04.220Z,7.07
2022-12-07T14:45:32.949Z,6.32
2022-12-07T14:53:53.151Z,0.70
2022-12-07T14:56:25.358Z,1.23
2022-12-07T14:58:54.115Z,0.90
2022-12-07T15:01:22.445Z,0.70
2022-12-07T15:03:51.638Z,1.00
2022-12-07T15:06:21.676Z,1.67
2022-12-07T15:08:51.290Z,4.90
2022-12-07T15:11:20.707Z,7.10
2022-12-07T15:14:07.361Z,0.70
2022-12-07T15:17:06.898Z,0.60
2022-12-07T15:19:29.876Z,1.00
2022-12-07T15:22:01.068Z,1.42
2022-12-07T15:24:29.544Z,2.13
2022-12-07T15:26:57.944Z,3.08
2022-12-07T15:29:26.335Z,3.83
2022-12-07T15:31:57.815Z,2.90
2022-12-07T15:34:31.887Z,4.30
2022-12-07T15:37:06.183Z,6.45
2022-12-07T15:39:34.552Z,3.03
2022-12-07T15:42:03.409Z,3.72
2022-12-07T15:44:49.021Z,5.00
2022-12-07T15:47:17.517Z,2.58
2022-12-07T15:49:46.142Z,1.45
2022-12-07T15:52:17.037Z,1.80
2022-12-07T15:54:45.874Z,2.30
2022-12-07T15:57:14.198Z,2.40
2022-12-07T15:59:42.843Z,1.65
2022-12-07T16:02:12.502Z,1.00
2022-12-07T16:04:40.945Z,1.55
2022-12-07T16:07:09.374Z,1.15
2022-12-07T16:09:39.129Z,1.25
2022-12-07T16:12:08.146Z,1.40
2022-12-07T16:14:36.728Z,1.65
2022-12-07T16:17:05.608Z,1.25
2022-12-07T16:19:34.487Z,1.20
2022-12-07T16:22:02.897Z,1.42
2022-12-07T16:24:31.305Z,1.40
2022-12-07T16:27:01.086Z,2.00
2022-12-07T16:29:29.760Z,1.33
2022-12-07T16:31:58.452Z,1.40
2022-12-07T16:34:26.921Z,1.70
2022-12-07T16:37:03.758Z,1.73
2022-12-07T16:39:33.424Z,1.80
2022-12-07T16:42:03.647Z,1.77
2022-12-07T16:44:32.895Z,1.70
2022-12-07T16:47:02.224Z,1.42
2022-12-07T16:49:30.796Z,1.60
2022-12-07T16:52:18.686Z,1.55
2022-12-07T16:54:48.107Z,1.65
2022-12-07T16:57:23.004Z,2.08
2022-12-07T16:59:52.766Z,1.80
2022-12-07T17:02:21.503Z,1.83
2022-12-07T17:04:49.922Z,3.33
2022-12-07T17:07:18.233Z,1.95
2022-12-07T17:09:46.605Z,2.28
2022-12-07T17:12:14.896Z,3.47
2022-12-07T17:15:02.713Z,2.20
2022-12-07T17:17:32.026Z,3.30
2022-12-07T17:20:00.289Z,2.38
2022-12-07T17:22:28.742Z,2.20
2022-12-07T17:24:57.115Z,1.98
2022-12-07T17:27:25.479Z,2.80
2022-12-07T17:29:55.526Z,1.70
2022-12-07T17:32:23.953Z,3.13
2022-12-07T17:34:52.452Z,2.10
2022-12-07T17:37:20.703Z,2.10
2022-12-07T17:39:49.176Z,1.85
2022-12-07T17:42:34.362Z,1.70
2022-12-07T17:45:05.555Z,2.40
2022-12-07T17:47:34.121Z,3.30
2022-12-07T17:50:07.011Z,2.00
2022-12-07T17:52:54.086Z,1.85
2022-12-07T17:55:22.459Z,2.08
2022-12-07T17:57:51.932Z,1.55
2022-12-07T18:00:22.394Z,2.03
2022-12-07T18:02:50.762Z,2.28
2022-12-07T18:05:19.675Z,2.10
2022-12-07T18:07:48.083Z,1.85
2022-12-07T18:10:16.739Z,2.22
2022-12-07T18:12:50.301Z,1.95
2022-12-07T18:15:21.874Z,2.60
2022-12-07T18:17:52.097Z,2.03
2022-12-07T18:20:20.848Z,2.20
2022-12-07T18:22:49.275Z,2.60
2022-12-07T18:25:17.717Z,2.20
2022-12-07T18:27:49.074Z,1.58
2022-12-07T18:30:18.566Z,3.15
2022-12-07T18:32:48.366Z,3.35
2022-12-07T18:35:17.052Z,1.63
2022-12-07T18:37:45.328Z,2.88
2022-12-07T18:40:14.806Z,2.10
2022-12-07T18:42:43.148Z,1.85
2022-12-07T18:45:12.347Z,1.90
2022-12-07T18:47:40.648Z,2.28
2022-12-07T18:50:12.749Z,3.83
2022-12-07T18:52:42.364Z,3.33
2022-12-07T18:55:10.994Z,3.08
2022-12-07T18:57:39.459Z,3.95
2022-12-07T19:00:09.436Z,4.57
2022-12-07T19:02:38.630Z,6.70
2022-12-07T19:05:07.939Z,3.83
2022-12-07T19:07:37.984Z,2.80
2022-12-07T19:10:09.078Z,4.60
2022-12-07T19:12:37.994Z,5.13
2022-12-07T19:15:07.616Z,4.90
2022-12-07T19:17:37.355Z,5.43
2022-12-07T19:20:08.206Z,5.28
2022-12-07T19:22:38.245Z,6.65
2022-12-07T19:25:07.549Z,4.75
2022-12-07T19:27:36.012Z,5.22
2022-12-07T19:30:04.465Z,4.50
2022-12-07T19:32:32.919Z,3.30
2022-12-07T19:35:02.210Z,2.17
2022-12-07T19:37:31.020Z,2.60
2022-12-07T19:40:01.132Z,2.53
2022-12-07T19:42:35.304Z,2.08
2022-12-07T19:45:04.807Z,2.20
2022-12-07T19:47:33.631Z,2.10
2022-12-07T19:50:02.105Z,2.65
2022-12-07T19:52:36.336Z,2.60
2022-12-07T19:55:08.306Z,2.47
2022-12-07T19:57:36.615Z,2.80
2022-12-07T20:00:06.521Z,3.33
2022-12-07T20:02:35.793Z,2.88
2022-12-07T20:05:09.500Z,4.10
2022-12-07T20:07:39.876Z,4.85
2022-12-07T20:10:12.863Z,15.68
2022-12-07T20:13:00.086Z,3.90
2022-12-07T20:15:29.958Z,3.53
2022-12-07T20:17:59.654Z,4.55
2022-12-07T20:20:29.263Z,4.32
2022-12-07T20:22:59.733Z,3.80
2022-12-07T20:25:33.832Z,2.97
2022-12-07T20:28:04.875Z,2.60
2022-12-07T20:30:34.706Z,2.38
2022-12-07T20:33:04.725Z,3.13
2022-12-07T20:35:34.326Z,2.65
2022-12-07T20:38:12.211Z,2.70
2022-12-07T20:40:49.871Z,2.50
2022-12-07T20:43:19.660Z,2.22
2022-12-07T20:45:50.162Z,2.60
2022-12-07T20:48:20.227Z,2.78
2022-12-07T20:50:49.980Z,2.60
2022-12-07T20:53:19.733Z,2.70
2022-12-07T20:55:51.385Z,2.53
2022-12-07T20:58:19.782Z,2.30
2022-12-07T21:00:49.247Z,2.80
2022-12-07T21:03:19.344Z,2.67
2022-12-07T21:05:50.887Z,2.90
2022-12-07T21:08:21.237Z,2.50
2022-12-07T21:10:51.840Z,2.50
2022-12-07T21:13:21.908Z,2.58
2022-12-07T21:15:52.197Z,2.70
2022-12-07T21:18:22.279Z,2.60
2022-12-07T21:20:52.115Z,3.20
2022-12-07T21:23:22.304Z,3.00
2022-12-07T21:25:53.576Z,3.08
2022-12-07T21:28:23.331Z,2.85
2022-12-07T21:31:12.677Z,3.08
2022-12-07T21:33:44.508Z,2.60
2022-12-07T21:36:15.303Z,2.42
2022-12-07T21:38:45.406Z,3.22
2022-12-07T21:41:19.596Z,2.53
2022-12-07T21:43:49.852Z,2.38
2022-12-07T21:46:20.425Z,3.00
2022-12-07T21:48:53.688Z,2.58
2022-12-07T21:51:23.712Z,2.42
2022-12-07T21:53:54.531Z,2.95
2022-12-07T21:56:25.928Z,2.60
2022-12-07T21:58:55.849Z,2.47
2022-12-07T22:01:26.537Z,3.00
2022-12-07T22:03:55.783Z,2.42
2022-12-07T22:06:26.063Z,2.50
2022-12-07T22:08:56.088Z,3.42
2022-12-07T22:11:25.857Z,3.15
2022-12-07T22:14:11.403Z,2.50
2022-12-07T22:16:40.230Z,2.60
2022-12-07T22:19:09.627Z,2.38
2022-12-07T22:21:41.299Z,3.05
2022-12-07T22:24:11.847Z,2.95
2022-12-07T22:26:42.309Z,3.60
2022-12-07T22:29:11.214Z,2.53
2022-12-07T22:31:41.249Z,2.30
2022-12-07T22:34:16.231Z,2.70
2022-12-07T22:36:45.181Z,2.38
2022-12-07T22:39:13.861Z,2.45
2022-12-07T22:41:44.300Z,2.90
2022-12-07T22:44:12.729Z,6.70
2022-12-07T22:46:41.845Z,2.88
2022-12-07T22:49:10.179Z,1.92
2022-12-07T22:51:40.420Z,2.33
2022-12-07T22:54:12.329Z,2.70
2022-12-07T22:56:40.605Z,2.28
2022-12-07T22:59:10.421Z,2.03
2022-12-07T23:01:38.869Z,2.40
2022-12-07T23:04:07.460Z,2.45
2022-12-07T23:06:37.135Z,2.13
2022-12-07T23:09:08.609Z,1.90
2022-12-07T23:11:57.648Z,2.00
2022-12-07T23:14:30.207Z,2.78
2022-12-07T23:16:58.804Z,2.30
2022-12-07T23:19:28.233Z,2.20
2022-12-07T23:21:56.654Z,2.90
2022-12-07T23:24:25.684Z,2.50
2022-12-07T23:26:54.124Z,3.45
2022-12-07T23:29:22.818Z,2.38
2022-12-07T23:31:52.808Z,2.58
2022-12-07T23:34:21.279Z,2.40
2022-12-07T23:36:49.608Z,2.28
2022-12-07T23:39:18.003Z,2.00
2022-12-07T23:41:46.353Z,2.30
2022-12-07T23:44:15.543Z,2.22
2022-12-07T23:46:43.911Z,2.30
2022-12-07T23:49:14.165Z,2.58
2022-12-07T23:51:42.770Z,1.92
2022-12-07T23:54:12.663Z,1.85
2022-12-07T23:56:41.260Z,2.10
2022-12-07T23:59:12.238Z,2.00
